LFLU 211130Z AUTO 36024KT 9999 FEW027 04/M02 Q1028

ElémentsDécodage
LFLU Station météo située sur l'aérodrome de VALENCE Chabeuil
211130Z émis le 21 du mois à 11h30 UTC
AUTO Bulletin édité par un automate
36024KT vent du 360°, 24 noeuds
9999 visibilité horizontale supérieure à 10 Km
FEW027 nuages rares (1/8 à 2/8) à 2700 pieds
04/M02 température 04°C, point de rosée -02°C
 soit une humidité relative de 65%
Q1028 la pression au niveau de la mer (QNH) est de 1028 hPa